Williams Grove, Pennsylvania
Current Conditions -  °F | °C
As of 10:56 AM on Tuesday 21 Oct 2014 (Local Time) from KCXY Reporting Station
Haze Haze  
Wind Chill: 57°   Ceiling: 5000
Heat Index: 57°   Visibility: 4mi
Dew Point: 52°   Wind: 0mph
Humidity: 83%   Direction: NA
Pressure: 29.88"   Gusts: NA
Location:  40.208°N, 77.0098°W
Report Text: KCXY 211456Z 00000KT 4SM HZ SCT007 BKN050 14/11 A2988 RMK AO2 SLP119 T01390111 50004
Loading
Personal Weather Stations






























Interactive Weather Map
Tropical Storm Tracking
New forecast layout! Learn more

10-Day Weather Forecast

Advertisements
Track Severe Weather on mobile